LIPF

Details ICAO LIPF
Name Ferrara
Region Italy
Timezone Europe/Rome (UTC+2.0)
Plans Departing 13
Arriving 9
Stats Elevation 21 ft / 6 m (AMSL)
Location 44.815548° 11.613928°
Runways 2
Magnetic Variation 3.047° E
Sunrise 2018-05-27 03:35:35 UTC / 2018-05-27 05:35:35 Local
Sunset 2018-05-27 18:48:41 UTC / 2018-05-27 20:48:41 Local
Advertisement - Login to hide

Runways

ID Width Length Bearing (true) Bearing (mag) Surface Threshold Offset Overrun Length
09L 98 ft / 30 m 2,626 ft / 801 m 90.00° 86.95° Asphalt 0 ft / 0 m 0 ft / 0 m
09R 197 ft / 60 m 2,955 ft / 901 m 90.00° 86.95° Dirt 0 ft / 0 m 0 ft / 0 m
27L 197 ft / 60 m 2,955 ft / 901 m 270.00° 266.95° Dirt 0 ft / 0 m 0 ft / 0 m
27R 98 ft / 30 m 2,626 ft / 801 m 270.00° 266.95° Asphalt 0 ft / 0 m 0 ft / 0 m

Map

Weather


0- 5 10 15 20 25 30 35+ Temperature / ° C

Clouds and Precipitation
Forecast for 2018-05-27 12:00 UTC. Updated an hour ago

Ground ~20,000 ft ~40,000 ft Winds

METAR

LIPF 271155Z 19004KT 9999 FEW030 31/19 Q1017 RMK FEW VIS MIN 9999

TAF

Not found
Warning: Do not use this data for real-world aviation or navigation. No guarantee of current accuracy is given.